KDLN/DLN METAR and TAF weather

Enter ICAO airport designator
Station Type Date Time Source
KDLN METAR 2019/06/26 22:29 UTC NOAA

KDLN 262229Z AUTO VRB05KT 9SM -TSRA FEW043 BKN075 BKN090 17/11 A2995 RMK AO2 TSB23 P0000 T01720111


Station Type Date Time Source
KDLN Decoded METAR 2019/06/26 22:29 UTC NOAA

DILLON AIRPORT, MT, United States (KDLN) 45-15N 112-33W 1591M
Jun 26, 2019 - 06:29 PM EDT / 2019.06.26 2229 UTC
Wind: Variable at 6 MPH (5 KT):0
Visibility: 9 mile(s):0
Sky conditions: mostly cloudy
Weather: light rain with thunder
Precipitation last hour: A trace
Temperature: 63.0 F (17.2 C)
Dew Point: 52.0 F (11.1 C)
Relative Humidity: 67%
Pressure (altimeter): 29.95 in. Hg (1014 hPa)
ob: KDLN 262229Z AUTO VRB05KT 9SM -TSRA FEW043 BKN075 BKN090 17/11 A2995 RMK AO2 TSB23 P0000 T01720111
cycle: 22

Station Type Date Time Source
KDLN TAF UTC NOAA

Error!

Example: see airport list